Vossem  Vossem


Bezoek onze andere website:

Meteotemplate

Home Weather Station

Saratoga


Lokaal brand risico:
CBI


Regionaal brand risico: Meer informatie



METAR rapporten vliegvelden

   
EBBR - Brussels
Gewijzigd: Apr 22 2019 4:20 pm
Helder  
Helder  
   Wind: OZO 16.7 km/h
Wind: OZO 16.7 km/h
Temperatuur: 24°C
Dauwpunt: 3°C
Vochtigheid: 25%
Barometer: 1005 mb
Zicht: meer dan 10 km
Bewolking: Helder
EBBR 221420Z 11009KT 060V150 CAVOK 24/03 Q1005 NOSIG
EBAW - Antwerp
Gewijzigd: Apr 22 2019 4:20 pm
Helder  
Helder  
   Wind: Oosten 20.4 km/h
Wind: Oosten 20.4 km/h
Temperatuur: 25°C
Dauwpunt: 4°C
Vochtigheid: 26%
Barometer: 1005 mb
Zicht: meer dan 10 km
Bewolking: Helder
EBAW 221420Z 09011KT 060V130 CAVOK 25/04 Q1005 NOSIG
EHBK - Maastricht
Gewijzigd: Apr 22 2019 4:25 pm
Gedeeltelijk bewolkt  
Gedeeltelijk bewolkt  
   Wind: Oosten 25.9 km/h
Wind: Oosten 25.9 km/h
Temperatuur: 23°C
Dauwpunt: 1°C
Vochtigheid: 23%
Barometer: 1005 mb
Bewolking: Gedeeltelijk bewolkt
Zicht: meer dan 10 km
Bewolking: Gedeeltelijk bewolkt
EHBK 221425Z AUTO 09014KT 060V120 9999 NSC 23/01 Q1005 NOSIG
EDLV - Nijmegen
Gewijzigd: Apr 22 2019 4:20 pm
Helder  
Helder  
   Wind: ONO 16.7 km/h
Wind: ONO 16.7 km/h
Temperatuur: 25°C
Dauwpunt: 4°C
Vochtigheid: 26%
Barometer: 1006 mb
Zicht: meer dan 10 km
Bewolking: Helder
EDLV 221420Z 07009KT 020V130 CAVOK 25/04 Q1006
EHRD - Rotterdam
Gewijzigd: Apr 22 2019 4:25 pm
Gedeeltelijk bewolkt  
Gedeeltelijk bewolkt  
   Wind: Oosten 24.1 km/h
Wind: Oosten 24.1 km/h
Temperatuur: 24°C
Dauwpunt: 4°C
Vochtigheid: 27%
Barometer: 1005 mb
Bewolking: Gedeeltelijk bewolkt
Zicht: meer dan 10 km
Bewolking: Gedeeltelijk bewolkt
EHRD 221425Z AUTO 09013KT 060V130 9999 NSC 24/04 Q1005 NOSIG
 

Script ontwikkeld door  Saratoga-weather.org Aangepast voor de template door  Weerstation Leuven

U vindt ons ook hier:

Het Weer Aktueel

UK Metoffice

European Weather Network

WeatherCloud

Weather Underground

Benelux Weer Netwerk

AWEKAS

Citizen Weather Observer Program (CWOP)

Apparatuur in gebruik:

Weerstation
Davis VP2

Weerprogramma
Meteobridge

Weercomputer
TP-Link MR3020

Davis VP2

Meteobridge

TP-Link MR3020